sensor_id;sensor_type;location;lat;lon;timestamp;P1;durP1;ratioP1;P2;durP2;ratioP2
51479;SDS011;37556;44.570;18.612;2024-01-25T07:40:14;15.50;;;11.97;;
51479;SDS011;37556;44.570;18.612;2024-01-25T08:03:40;8.95;;;6.68;;
51479;SDS011;37556;44.570;18.612;2024-01-25T08:06:06;10.45;;;9.25;;
51479;SDS011;37556;44.570;18.612;2024-01-25T08:08:33;7.15;;;4.90;;
51479;SDS011;37556;44.570;18.612;2024-01-25T08:10:59;9.85;;;4.93;;
51479;SDS011;37556;44.570;18.612;2024-01-25T08:15:55;6.40;;;4.75;;
51479;SDS011;37556;44.570;18.612;2024-01-25T08:18:21;6.25;;;5.47;;
51479;SDS011;37556;44.570;18.612;2024-01-25T08:20:54;7.70;;;4.28;;
51479;SDS011;37556;44.570;18.612;2024-01-25T08:23:21;7.45;;;6.50;;
51479;SDS011;37556;44.570;18.612;2024-01-25T08:25:47;5.53;;;5.05;;
51479;SDS011;37556;44.570;18.612;2024-01-25T08:28:13;9.25;;;5.63;;
51479;SDS011;37556;44.570;18.612;2024-01-25T08:30:39;6.60;;;5.90;;
51479;SDS011;37556;44.570;18.612;2024-01-25T08:33:05;11.32;;;6.90;;
51479;SDS011;37556;44.570;18.612;2024-01-25T08:35:31;6.53;;;5.90;;
51479;SDS011;37556;44.570;18.612;2024-01-25T08:37:58;11.27;;;7.88;;
51479;SDS011;37556;44.570;18.612;2024-01-25T08:40:24;19.08;;;13.65;;
51479;SDS011;37556;44.570;18.612;2024-01-25T08:42:50;12.68;;;11.23;;
51479;SDS011;37556;44.570;18.612;2024-01-25T08:45:16;8.23;;;4.18;;
51479;SDS011;37556;44.570;18.612;2024-01-25T08:47:44;4.35;;;3.97;;
51479;SDS011;37556;44.570;18.612;2024-01-25T08:50:11;3.60;;;2.70;;
51479;SDS011;37556;44.570;18.612;2024-01-25T08:52:37;6.03;;;3.50;;
51479;SDS011;37556;44.570;18.612;2024-01-25T08:55:06;2.70;;;2.40;;
51479;SDS011;37556;44.570;18.612;2024-01-25T08:57:32;4.80;;;3.10;;
51479;SDS011;37556;44.570;18.612;2024-01-25T08:59:58;4.93;;;3.17;;
51479;SDS011;37556;44.570;18.612;2024-01-25T09:02:25;1.33;;;1.33;;
51479;SDS011;37556;44.570;18.612;2024-01-25T09:04:54;4.50;;;4.07;;
51479;SDS011;37556;44.570;18.612;2024-01-25T09:07:20;7.47;;;3.58;;
51479;SDS011;37556;44.570;18.612;2024-01-25T09:09:46;4.53;;;4.20;;
51479;SDS011;37556;44.570;18.612;2024-01-25T09:12:12;3.72;;;3.42;;
51479;SDS011;37556;44.570;18.612;2024-01-25T09:14:39;7.43;;;3.22;;
51479;SDS011;37556;44.570;18.612;2024-01-25T09:17:05;8.38;;;2.38;;
51479;SDS011;37556;44.570;18.612;2024-01-25T09:19:32;4.25;;;3.17;;
51479;SDS011;37556;44.570;18.612;2024-01-25T09:21:58;5.35;;;3.85;;
51479;SDS011;37556;44.570;18.612;2024-01-25T09:24:29;4.35;;;3.08;;
51479;SDS011;37556;44.570;18.612;2024-01-25T09:26:55;5.05;;;3.28;;
51479;SDS011;37556;44.570;18.612;2024-01-25T09:29:21;9.00;;;4.50;;
51479;SDS011;37556;44.570;18.612;2024-01-25T09:31:47;6.65;;;5.05;;
51479;SDS011;37556;44.570;18.612;2024-01-25T09:34:13;5.15;;;3.25;;
51479;SDS011;37556;44.570;18.612;2024-01-25T09:36:40;6.50;;;4.28;;
51479;SDS011;37556;44.570;18.612;2024-01-25T09:39:06;6.03;;;5.43;;
51479;SDS011;37556;44.570;18.612;2024-01-25T09:41:33;1.98;;;1.88;;
51479;SDS011;37556;44.570;18.612;2024-01-25T09:46:25;3.53;;;1.80;;
51479;SDS011;37556;44.570;18.612;2024-01-25T09:48:53;2.72;;;2.55;;
51479;SDS011;37556;44.570;18.612;2024-01-25T09:51:19;4.72;;;2.05;;
51479;SDS011;37556;44.570;18.612;2024-01-25T09:53:45;6.35;;;3.70;;
51479;SDS011;37556;44.570;18.612;2024-01-25T09:56:15;2.72;;;2.53;;
51479;SDS011;37556;44.570;18.612;2024-01-25T09:58:42;8.50;;;7.32;;
51479;SDS011;37556;44.570;18.612;2024-01-25T10:01:11;18.85;;;13.55;;
51479;SDS011;37556;44.570;18.612;2024-01-25T10:03:41;19.88;;;10.85;;
51479;SDS011;37556;44.570;18.612;2024-01-25T10:06:26;16.27;;;8.13;;
51479;SDS011;37556;44.570;18.612;2024-01-25T10:09:04;27.42;;;11.07;;
51479;SDS011;37556;44.570;18.612;2024-01-25T10:11:31;12.75;;;7.30;;
51479;SDS011;37556;44.570;18.612;2024-01-25T10:14:01;5.78;;;4.50;;
51479;SDS011;37556;44.570;18.612;2024-01-25T10:16:31;6.45;;;3.95;;
51479;SDS011;37556;44.570;18.612;2024-01-25T10:21:23;7.30;;;3.50;;
51479;SDS011;37556;44.570;18.612;2024-01-25T10:23:50;4.82;;;4.50;;
51479;SDS011;37556;44.570;18.612;2024-01-25T10:26:19;2.95;;;2.45;;
51479;SDS011;37556;44.570;18.612;2024-01-25T10:31:11;3.25;;;2.35;;
51479;SDS011;37556;44.570;18.612;2024-01-25T10:33:38;3.95;;;3.10;;
51479;SDS011;37556;44.570;18.612;2024-01-25T10:36:04;3.28;;;3.08;;
51479;SDS011;37556;44.570;18.612;2024-01-25T10:38:34;2.28;;;1.52;;
51479;SDS011;37556;44.570;18.612;2024-01-25T10:41:02;4.60;;;3.15;;
51479;SDS011;37556;44.570;18.612;2024-01-25T10:43:28;2.45;;;2.35;;
51479;SDS011;37556;44.570;18.612;2024-01-25T10:45:58;3.92;;;2.55;;
51479;SDS011;37556;44.570;18.612;2024-01-25T10:48:25;4.00;;;3.65;;
51479;SDS011;37556;44.570;18.612;2024-01-25T10:50:54;4.28;;;2.47;;
51479;SDS011;37556;44.570;18.612;2024-01-25T10:53:21;2.20;;;1.98;;
51479;SDS011;37556;44.570;18.612;2024-01-25T10:55:47;5.18;;;2.55;;
51479;SDS011;37556;44.570;18.612;2024-01-25T10:58:13;3.80;;;3.25;;
51479;SDS011;37556;44.570;18.612;2024-01-25T11:00:40;3.28;;;2.58;;
51479;SDS011;37556;44.570;18.612;2024-01-25T11:03:06;3.92;;;1.75;;
51479;SDS011;37556;44.570;18.612;2024-01-25T11:07:59;2.45;;;2.25;;
51479;SDS011;37556;44.570;18.612;2024-01-25T11:10:26;1.75;;;1.65;;
51479;SDS011;37556;44.570;18.612;2024-01-25T11:12:58;5.85;;;3.38;;
51479;SDS011;37556;44.570;18.612;2024-01-25T11:15:31;2.92;;;1.90;;
51479;SDS011;37556;44.570;18.612;2024-01-25T11:17:58;1.77;;;1.50;;
51479;SDS011;37556;44.570;18.612;2024-01-25T11:20:25;1.63;;;1.52;;
51479;SDS011;37556;44.570;18.612;2024-01-25T11:22:58;6.35;;;3.45;;
51479;SDS011;37556;44.570;18.612;2024-01-25T11:25:28;2.97;;;1.70;;
51479;SDS011;37556;44.570;18.612;2024-01-25T11:27:54;2.10;;;2.00;;
51479;SDS011;37556;44.570;18.612;2024-01-25T11:30:21;2.53;;;2.33;;
51479;SDS011;37556;44.570;18.612;2024-01-25T11:35:13;3.20;;;2.60;;
51479;SDS011;37556;44.570;18.612;2024-01-25T11:37:50;1.98;;;1.63;;
51479;SDS011;37556;44.570;18.612;2024-01-25T11:40:17;1.38;;;1.08;;
51479;SDS011;37556;44.570;18.612;2024-01-25T11:42:44;0.65;;;0.65;;
51479;SDS011;37556;44.570;18.612;2024-01-25T11:45:11;4.03;;;1.13;;
51479;SDS011;37556;44.570;18.612;2024-01-25T11:47:37;0.25;;;0.25;;
51479;SDS011;37556;44.570;18.612;2024-01-25T11:50:04;0.30;;;0.22;;
51479;SDS011;37556;44.570;18.612;2024-01-25T11:52:32;0.45;;;0.45;;
51479;SDS011;37556;44.570;18.612;2024-01-25T11:55:01;0.50;;;0.50;;
51479;SDS011;37556;44.570;18.612;2024-01-25T11:57:28;0.00;;;0.00;;
51479;SDS011;37556;44.570;18.612;2024-01-25T11:59:55;0.38;;;0.30;;
51479;SDS011;37556;44.570;18.612;2024-01-25T12:02:21;0.30;;;0.30;;
51479;SDS011;37556;44.570;18.612;2024-01-25T12:04:48;0.08;;;0.08;;
51479;SDS011;37556;44.570;18.612;2024-01-25T12:07:15;1.98;;;0.90;;
51479;SDS011;37556;44.570;18.612;2024-01-25T12:09:41;1.00;;;0.82;;
51479;SDS011;37556;44.570;18.612;2024-01-25T12:12:09;0.25;;;0.25;;
51479;SDS011;37556;44.570;18.612;2024-01-25T12:14:35;0.75;;;0.20;;
51479;SDS011;37556;44.570;18.612;2024-01-25T12:17:03;0.70;;;0.70;;
51479;SDS011;37556;44.570;18.612;2024-01-25T12:19:29;0.95;;;0.95;;
51479;SDS011;37556;44.570;18.612;2024-01-25T12:24:21;0.95;;;0.90;;
51479;SDS011;37556;44.570;18.612;2024-01-25T12:26:48;2.28;;;0.57;;
51479;SDS011;37556;44.570;18.612;2024-01-25T12:29:14;0.30;;;0.30;;
51479;SDS011;37556;44.570;18.612;2024-01-25T12:31:42;0.52;;;0.52;;
51479;SDS011;37556;44.570;18.612;2024-01-25T12:34:14;0.10;;;0.10;;
51479;SDS011;37556;44.570;18.612;2024-01-25T12:36:41;0.57;;;0.57;;
51479;SDS011;37556;44.570;18.612;2024-01-25T12:39:07;0.47;;;0.47;;
51479;SDS011;37556;44.570;18.612;2024-01-25T12:44:00;0.50;;;0.50;;
51479;SDS011;37556;44.570;18.612;2024-01-25T12:48:52;0.08;;;0.08;;
51479;SDS011;37556;44.570;18.612;2024-01-25T12:51:20;3.42;;;2.28;;
51479;SDS011;37556;44.570;18.612;2024-01-25T12:53:49;0.10;;;0.10;;
51479;SDS011;37556;44.570;18.612;2024-01-25T12:56:19;0.70;;;0.70;;
51479;SDS011;37556;44.570;18.612;2024-01-25T12:58:45;0.30;;;0.30;;
51479;SDS011;37556;44.570;18.612;2024-01-25T13:01:14;0.05;;;0.05;;
51479;SDS011;37556;44.570;18.612;2024-01-25T13:03:40;0.22;;;0.22;;
51479;SDS011;37556;44.570;18.612;2024-01-25T13:08:35;0.00;;;0.00;;
51479;SDS011;37556;44.570;18.612;2024-01-25T13:11:11;0.30;;;0.30;;
51479;SDS011;37556;44.570;18.612;2024-01-25T13:13:37;0.20;;;0.20;;
51479;SDS011;37556;44.570;18.612;2024-01-25T13:16:03;0.00;;;0.00;;
51479;SDS011;37556;44.570;18.612;2024-01-25T13:18:32;4.82;;;0.32;;
51479;SDS011;37556;44.570;18.612;2024-01-25T13:20:58;0.13;;;0.13;;
51479;SDS011;37556;44.570;18.612;2024-01-25T13:25:54;0.20;;;0.20;;
51479;SDS011;37556;44.570;18.612;2024-01-25T13:28:22;0.10;;;0.10;;
51479;SDS011;37556;44.570;18.612;2024-01-25T13:30:49;0.10;;;0.10;;
51479;SDS011;37556;44.570;18.612;2024-01-25T13:35:44;0.13;;;0.13;;
51479;SDS011;37556;44.570;18.612;2024-01-25T13:38:19;0.00;;;0.00;;
51479;SDS011;37556;44.570;18.612;2024-01-25T13:40:45;0.00;;;0.00;;
51479;SDS011;37556;44.570;18.612;2024-01-25T13:45:49;1.20;;;0.40;;
51479;SDS011;37556;44.570;18.612;2024-01-25T13:48:15;0.00;;;0.00;;
51479;SDS011;37556;44.570;18.612;2024-01-25T13:50:44;0.00;;;0.00;;
51479;SDS011;37556;44.570;18.612;2024-01-25T13:55:38;0.00;;;0.00;;
51479;SDS011;37556;44.570;18.612;2024-01-25T13:58:08;0.43;;;0.20;;
51479;SDS011;37556;44.570;18.612;2024-01-25T14:00:34;0.10;;;0.10;;
51479;SDS011;37556;44.570;18.612;2024-01-25T14:05:26;0.10;;;0.10;;
51479;SDS011;37556;44.570;18.612;2024-01-25T14:07:52;0.15;;;0.15;;
51479;SDS011;37556;44.570;18.612;2024-01-25T14:10:21;2.13;;;0.22;;
51479;SDS011;37556;44.570;18.612;2024-01-25T14:12:50;0.38;;;0.20;;
51479;SDS011;37556;44.570;18.612;2024-01-25T14:15:16;0.13;;;0.13;;
51479;SDS011;37556;44.570;18.612;2024-01-25T14:17:46;0.17;;;0.17;;
51479;SDS011;37556;44.570;18.612;2024-01-25T14:20:15;0.77;;;0.20;;
51479;SDS011;37556;44.570;18.612;2024-01-25T14:22:43;0.65;;;0.40;;
51479;SDS011;37556;44.570;18.612;2024-01-25T14:25:11;0.47;;;0.47;;
51479;SDS011;37556;44.570;18.612;2024-01-25T14:27:41;0.00;;;0.00;;
51479;SDS011;37556;44.570;18.612;2024-01-25T14:30:08;0.20;;;0.20;;
51479;SDS011;37556;44.570;18.612;2024-01-25T14:32:37;0.38;;;0.38;;
51479;SDS011;37556;44.570;18.612;2024-01-25T14:35:06;15.10;;;2.10;;
51479;SDS011;37556;44.570;18.612;2024-01-25T14:37:35;0.10;;;0.10;;
51479;SDS011;37556;44.570;18.612;2024-01-25T14:40:01;0.45;;;0.22;;
51479;SDS011;37556;44.570;18.612;2024-01-25T14:42:30;0.28;;;0.28;;
51479;SDS011;37556;44.570;18.612;2024-01-25T14:44:59;0.80;;;0.80;;
51479;SDS011;37556;44.570;18.612;2024-01-25T14:47:25;0.10;;;0.10;;
51479;SDS011;37556;44.570;18.612;2024-01-25T14:49:54;0.10;;;0.10;;
51479;SDS011;37556;44.570;18.612;2024-01-25T14:52:24;0.20;;;0.20;;
51479;SDS011;37556;44.570;18.612;2024-01-25T14:54:53;0.05;;;0.05;;
51479;SDS011;37556;44.570;18.612;2024-01-25T14:57:19;0.03;;;0.03;;
51479;SDS011;37556;44.570;18.612;2024-01-25T14:59:48;0.00;;;0.00;;
51479;SDS011;37556;44.570;18.612;2024-01-25T15:02:14;0.77;;;0.77;;
51479;SDS011;37556;44.570;18.612;2024-01-25T15:04:40;0.32;;;0.32;;
51479;SDS011;37556;44.570;18.612;2024-01-25T15:07:09;0.20;;;0.20;;
51479;SDS011;37556;44.570;18.612;2024-01-25T15:09:45;0.00;;;0.00;;
51479;SDS011;37556;44.570;18.612;2024-01-25T15:12:14;0.10;;;0.10;;
51479;SDS011;37556;44.570;18.612;2024-01-25T15:14:49;0.15;;;0.15;;
51479;SDS011;37556;44.570;18.612;2024-01-25T15:17:31;0.00;;;0.00;;
51479;SDS011;37556;44.570;18.612;2024-01-25T15:20:00;0.10;;;0.10;;
51479;SDS011;37556;44.570;18.612;2024-01-25T15:22:29;0.35;;;0.35;;
51479;SDS011;37556;44.570;18.612;2024-01-25T15:24:56;1.30;;;0.60;;
51479;SDS011;37556;44.570;18.612;2024-01-25T15:27:25;0.08;;;0.08;;
51479;SDS011;37556;44.570;18.612;2024-01-25T15:29:54;0.00;;;0.00;;
51479;SDS011;37556;44.570;18.612;2024-01-25T15:32:23;0.20;;;0.20;;
51479;SDS011;37556;44.570;18.612;2024-01-25T15:34:52;0.22;;;0.15;;
51479;SDS011;37556;44.570;18.612;2024-01-25T15:37:21;0.00;;;0.00;;
51479;SDS011;37556;44.570;18.612;2024-01-25T15:39:48;1.48;;;0.70;;
51479;SDS011;37556;44.570;18.612;2024-01-25T15:44:45;1.90;;;1.85;;
51479;SDS011;37556;44.570;18.612;2024-01-25T15:47:15;0.75;;;0.75;;
51479;SDS011;37556;44.570;18.612;2024-01-25T15:49:44;1.45;;;1.35;;
51479;SDS011;37556;44.570;18.612;2024-01-25T15:52:13;4.40;;;2.03;;
51479;SDS011;37556;44.570;18.612;2024-01-25T15:54:42;3.13;;;1.58;;
51479;SDS011;37556;44.570;18.612;2024-01-25T15:57:11;1.50;;;1.30;;
51479;SDS011;37556;44.570;18.612;2024-01-25T15:59:41;5.88;;;3.28;;
51479;SDS011;37556;44.570;18.612;2024-01-25T16:02:07;2.83;;;2.05;;
51479;SDS011;37556;44.570;18.612;2024-01-25T16:04:33;3.97;;;1.52;;
51479;SDS011;37556;44.570;18.612;2024-01-25T16:07:02;2.38;;;1.83;;
51479;SDS011;37556;44.570;18.612;2024-01-25T16:09:37;3.17;;;1.52;;
51479;SDS011;37556;44.570;18.612;2024-01-25T16:12:07;3.45;;;1.67;;
51479;SDS011;37556;44.570;18.612;2024-01-25T16:14:33;2.13;;;2.03;;
51479;SDS011;37556;44.570;18.612;2024-01-25T16:17:02;3.50;;;3.20;;
51479;SDS011;37556;44.570;18.612;2024-01-25T16:19:32;3.38;;;3.00;;
51479;SDS011;37556;44.570;18.612;2024-01-25T16:22:01;12.48;;;7.10;;
51479;SDS011;37556;44.570;18.612;2024-01-25T16:24:30;5.15;;;4.65;;
51479;SDS011;37556;44.570;18.612;2024-01-25T16:27:00;6.20;;;3.95;;
51479;SDS011;37556;44.570;18.612;2024-01-25T16:29:29;5.60;;;3.53;;
51479;SDS011;37556;44.570;18.612;2024-01-25T16:31:58;7.20;;;3.53;;
51479;SDS011;37556;44.570;18.612;2024-01-25T16:34:34;7.60;;;5.85;;
51479;SDS011;37556;44.570;18.612;2024-01-25T16:37:01;18.45;;;7.93;;
51479;SDS011;37556;44.570;18.612;2024-01-25T16:39:29;12.30;;;5.25;;
51479;SDS011;37556;44.570;18.612;2024-01-25T16:41:59;7.68;;;3.75;;
51479;SDS011;37556;44.570;18.612;2024-01-25T16:44:28;4.95;;;4.50;;
51479;SDS011;37556;44.570;18.612;2024-01-25T16:46:57;3.72;;;1.92;;
51479;SDS011;37556;44.570;18.612;2024-01-25T16:49:26;8.00;;;4.88;;
51479;SDS011;37556;44.570;18.612;2024-01-25T16:51:56;6.15;;;5.28;;
51479;SDS011;37556;44.570;18.612;2024-01-25T16:54:25;10.45;;;7.35;;
51479;SDS011;37556;44.570;18.612;2024-01-25T16:57:00;12.70;;;6.72;;
51479;SDS011;37556;44.570;18.612;2024-01-25T16:59:29;5.95;;;5.35;;
51479;SDS011;37556;44.570;18.612;2024-01-25T17:01:56;14.15;;;5.13;;
51479;SDS011;37556;44.570;18.612;2024-01-25T17:04:40;4.28;;;3.38;;
51479;SDS011;37556;44.570;18.612;2024-01-25T17:07:09;8.07;;;3.95;;
51479;SDS011;37556;44.570;18.612;2024-01-25T17:09:44;2.63;;;2.40;;
51479;SDS011;37556;44.570;18.612;2024-01-25T17:12:13;3.47;;;2.15;;
51479;SDS011;37556;44.570;18.612;2024-01-25T17:14:43;2.10;;;1.52;;
51479;SDS011;37556;44.570;18.612;2024-01-25T17:17:12;8.25;;;4.22;;
51479;SDS011;37556;44.570;18.612;2024-01-25T17:19:38;7.10;;;6.18;;
51479;SDS011;37556;44.570;18.612;2024-01-25T17:24:36;6.82;;;5.20;;
51479;SDS011;37556;44.570;18.612;2024-01-25T17:27:05;2.83;;;2.63;;
51479;SDS011;37556;44.570;18.612;2024-01-25T17:29:34;3.97;;;3.03;;
51479;SDS011;37556;44.570;18.612;2024-01-25T17:32:04;11.60;;;5.60;;
51479;SDS011;37556;44.570;18.612;2024-01-25T17:34:33;7.40;;;4.40;;
51479;SDS011;37556;44.570;18.612;2024-01-25T17:37:02;5.32;;;2.85;;
